LNG Imo — ZCDT6 — position and weather

sailwx.info

Track history (hours):
 
Tides and Currents Weather Stations Pressure Air Temp Water Temp Dewpoint Dewpoint Depression Visibility Wind Speed Wind Dir Waves Ship Positions

LNG Imo

Last reported at 2016-Feb-09 02:34 UTC. Time now 2016-Feb-10 02:45 UTC.
Position N 35°59' W 005°33'.

Length 288 m; draft 9.1 m.

Type: Ship (hazmat cat D). MMSI: 310565000.

Date/timePositionNaut miles runAvg speedWind from/ knotsBaromVisibWave heightAir tempDewpointWater temp
2016-Feb-09 02:34N 35°59' W 005°33'1010.2
2016-Feb-09 01:34N 36°05' W 005°23'5 3.7
2016-Feb-09 00:19N 36°10' W 005°23'0 0.0
2016-Feb-08 21:12N 36°10' W 005°23'0 0.1
2016-Feb-08 20:31N 36°10' W 005°23'0 0.0
2016-Feb-08 19:25N 36°10' W 005°23'0 0.0
2016-Feb-08 18:33N 36°10' W 005°23'0 0.0
2016-Feb-08 17:31N 36°10' W 005°23'0 0.0
2016-Feb-08 16:22N 36°10' W 005°23'0 0.0
2016-Feb-08 11:12N 36°10' W 005°23'0 0.0
2016-Feb-08 10:23N 36°10' W 005°23'0 0.4
2016-Feb-08 09:33N 36°10' W 005°23'3 3.2
2016-Feb-08 08:33N 36°06' W 005°23'10 9.6
2016-Feb-08 07:34N 36°03' W 005°12'42313.2
2016-Feb-06 23:26N 37°08' E 003°29'1314.4
2016-Feb-06 22:32N 37°10' E 003°45'46013.9
2016-Feb-05 13:25N 36°51' E 013°21'1214.1
2016-Feb-05 12:33N 36°46' E 013°35'1313.5
2016-Feb-05 11:34N 36°42' E 013°51'1413.6
2016-Feb-05 10:33N 36°37' E 014°07'1414.0
2016-Feb-05 09:34N 36°31' E 014°23'1413.6
2016-Feb-05 08:32N 36°26' E 014°39'48012.3
2016-Feb-03 17:33N 37°44' E 024°32'  
2016-Jan-31 12:17N 36°24' E 015°17'1317.0
2016-Jan-31 11:30N 36°26' E 015°01'1616.9
2016-Jan-31 10:33N 36°27' E 014°41'1716.9
2016-Jan-31 09:33N 36°32' E 014°21'1716.8
2016-Jan-31 08:33N 36°38' E 014°02'1717.0
2016-Jan-31 07:33N 36°44' E 013°42'1716.7
2016-Jan-31 06:33N 36°51' E 013°23'1816.9
2016-Jan-31 05:30N 36°57' E 013°02'  
Track history (hours):
 
Tides and Currents Weather Stations Pressure Air Temp Water Temp Dewpoint Dewpoint Depression Visibility Wind Speed Wind Dir Waves Ship Positions

LNG Imo

Last reported at 2016-Feb-09 02:34 UTC. Time now 2016-Feb-10 02:45 UTC.
Position N 35°59' W 005°33'.

Length 288 m; draft 9.1 m.

Type: Ship (hazmat cat D). MMSI: 310565000.

Date/timePositionNaut miles runAvg speedWind from/ knotsBaromVisibWave heightAir tempDewpointWater temp
2016-Feb-09 02:34N 35°59' W 005°33'1010.2
2016-Feb-09 01:34N 36°05' W 005°23'5 3.7
2016-Feb-09 00:19N 36°10' W 005°23'0 0.0
2016-Feb-08 21:12N 36°10' W 005°23'0 0.1
2016-Feb-08 20:31N 36°10' W 005°23'0 0.0
2016-Feb-08 19:25N 36°10' W 005°23'0 0.0
2016-Feb-08 18:33N 36°10' W 005°23'0 0.0
2016-Feb-08 17:31N 36°10' W 005°23'0 0.0
2016-Feb-08 16:22N 36°10' W 005°23'0 0.0
2016-Feb-08 11:12N 36°10' W 005°23'0 0.0
2016-Feb-08 10:23N 36°10' W 005°23'0 0.4
2016-Feb-08 09:33N 36°10' W 005°23'3 3.2
2016-Feb-08 08:33N 36°06' W 005°23'10 9.6
2016-Feb-08 07:34N 36°03' W 005°12'42313.2
2016-Feb-06 23:26N 37°08' E 003°29'1314.4
2016-Feb-06 22:32N 37°10' E 003°45'46013.9
2016-Feb-05 13:25N 36°51' E 013°21'1214.1
2016-Feb-05 12:33N 36°46' E 013°35'1313.5
2016-Feb-05 11:34N 36°42' E 013°51'1413.6
2016-Feb-05 10:33N 36°37' E 014°07'1414.0
2016-Feb-05 09:34N 36°31' E 014°23'1413.6
2016-Feb-05 08:32N 36°26' E 014°39'48012.3
2016-Feb-03 17:33N 37°44' E 024°32'  
2016-Jan-31 12:17N 36°24' E 015°17'1317.0
2016-Jan-31 11:30N 36°26' E 015°01'1616.9
2016-Jan-31 10:33N 36°27' E 014°41'1716.9
2016-Jan-31 09:33N 36°32' E 014°21'1716.8
2016-Jan-31 08:33N 36°38' E 014°02'1717.0
2016-Jan-31 07:33N 36°44' E 013°42'1716.7
2016-Jan-31 06:33N 36°51' E 013°23'1816.9
2016-Jan-31 05:30N 36°57' E 013°02'  

Dump ship's entire track history